sensor_id;sensor_type;location;lat;lon;timestamp;P1;durP1;ratioP1;P2;durP2;ratioP2
22201;SDS011;11266;51.522;6.302;2024-01-06T00:00:12;9.70;;;7.30;;
22201;SDS011;11266;51.522;6.302;2024-01-06T00:00:58;13.68;;;7.50;;
22201;SDS011;11266;51.522;6.302;2024-01-06T00:01:43;9.85;;;8.43;;
22201;SDS011;11266;51.522;6.302;2024-01-06T00:02:29;9.50;;;7.30;;
22201;SDS011;11266;51.522;6.302;2024-01-06T00:03:14;11.23;;;7.57;;
22201;SDS011;11266;51.522;6.302;2024-01-06T00:04:00;11.63;;;7.63;;
22201;SDS011;11266;51.522;6.302;2024-01-06T00:04:45;11.10;;;7.45;;
22201;SDS011;11266;51.522;6.302;2024-01-06T00:05:31;10.52;;;7.65;;
22201;SDS011;11266;51.522;6.302;2024-01-06T00:06:16;8.82;;;7.22;;
22201;SDS011;11266;51.522;6.302;2024-01-06T00:07:02;11.48;;;7.63;;
22201;SDS011;11266;51.522;6.302;2024-01-06T00:07:48;13.20;;;8.38;;
22201;SDS011;11266;51.522;6.302;2024-01-06T00:08:34;12.70;;;8.07;;
22201;SDS011;11266;51.522;6.302;2024-01-06T00:09:19;12.82;;;7.35;;
22201;SDS011;11266;51.522;6.302;2024-01-06T00:10:05;10.02;;;8.23;;
22201;SDS011;11266;51.522;6.302;2024-01-06T00:10:51;10.00;;;7.75;;
22201;SDS011;11266;51.522;6.302;2024-01-06T00:11:37;13.30;;;8.50;;
22201;SDS011;11266;51.522;6.302;2024-01-06T00:12:22;11.07;;;8.23;;
22201;SDS011;11266;51.522;6.302;2024-01-06T00:13:08;14.25;;;8.90;;
22201;SDS011;11266;51.522;6.302;2024-01-06T00:13:54;17.63;;;8.50;;
22201;SDS011;11266;51.522;6.302;2024-01-06T00:14:40;17.83;;;8.32;;
22201;SDS011;11266;51.522;6.302;2024-01-06T00:15:28;20.80;;;9.20;;
22201;SDS011;11266;51.522;6.302;2024-01-06T00:16:17;12.23;;;8.93;;
22201;SDS011;11266;51.522;6.302;2024-01-06T00:17:03;11.30;;;8.80;;
22201;SDS011;11266;51.522;6.302;2024-01-06T00:17:49;13.25;;;8.45;;
22201;SDS011;11266;51.522;6.302;2024-01-06T00:18:34;12.68;;;7.88;;
22201;SDS011;11266;51.522;6.302;2024-01-06T00:19:20;9.65;;;8.15;;
22201;SDS011;11266;51.522;6.302;2024-01-06T00:20:06;15.13;;;8.55;;
22201;SDS011;11266;51.522;6.302;2024-01-06T00:20:52;12.02;;;8.48;;
22201;SDS011;11266;51.522;6.302;2024-01-06T00:21:37;11.15;;;8.30;;
22201;SDS011;11266;51.522;6.302;2024-01-06T00:22:23;12.35;;;8.75;;
22201;SDS011;11266;51.522;6.302;2024-01-06T00:23:09;11.48;;;8.82;;
22201;SDS011;11266;51.522;6.302;2024-01-06T00:23:54;13.13;;;8.20;;
22201;SDS011;11266;51.522;6.302;2024-01-06T00:24:43;13.38;;;8.45;;
22201;SDS011;11266;51.522;6.302;2024-01-06T00:25:28;11.00;;;8.27;;
22201;SDS011;11266;51.522;6.302;2024-01-06T00:26:14;8.90;;;7.63;;
22201;SDS011;11266;51.522;6.302;2024-01-06T00:27:00;9.68;;;7.45;;
22201;SDS011;11266;51.522;6.302;2024-01-06T00:27:45;11.57;;;7.78;;
22201;SDS011;11266;51.522;6.302;2024-01-06T00:28:31;18.25;;;8.73;;
22201;SDS011;11266;51.522;6.302;2024-01-06T00:29:16;16.83;;;9.05;;
22201;SDS011;11266;51.522;6.302;2024-01-06T00:30:02;24.00;;;9.38;;
22201;SDS011;11266;51.522;6.302;2024-01-06T00:30:48;16.75;;;9.05;;
22201;SDS011;11266;51.522;6.302;2024-01-06T00:31:34;14.48;;;8.57;;
22201;SDS011;11266;51.522;6.302;2024-01-06T00:32:19;15.30;;;9.38;;
22201;SDS011;11266;51.522;6.302;2024-01-06T00:33:05;15.48;;;10.05;;
22201;SDS011;11266;51.522;6.302;2024-01-06T00:33:50;12.27;;;9.15;;
22201;SDS011;11266;51.522;6.302;2024-01-06T00:34:36;14.18;;;9.48;;
22201;SDS011;11266;51.522;6.302;2024-01-06T00:35:21;18.17;;;11.25;;
22201;SDS011;11266;51.522;6.302;2024-01-06T00:36:07;15.63;;;10.27;;
22201;SDS011;11266;51.522;6.302;2024-01-06T00:36:53;16.73;;;10.05;;
22201;SDS011;11266;51.522;6.302;2024-01-06T00:37:39;14.13;;;9.43;;
22201;SDS011;11266;51.522;6.302;2024-01-06T00:38:24;14.43;;;9.05;;
22201;SDS011;11266;51.522;6.302;2024-01-06T00:39:10;17.20;;;10.30;;
22201;SDS011;11266;51.522;6.302;2024-01-06T00:39:56;18.50;;;10.38;;
22201;SDS011;11266;51.522;6.302;2024-01-06T00:40:42;16.80;;;9.77;;
22201;SDS011;11266;51.522;6.302;2024-01-06T00:41:27;13.65;;;9.73;;
22201;SDS011;11266;51.522;6.302;2024-01-06T00:42:13;13.13;;;9.88;;
22201;SDS011;11266;51.522;6.302;2024-01-06T00:42:58;20.83;;;11.27;;
22201;SDS011;11266;51.522;6.302;2024-01-06T00:43:44;17.67;;;10.68;;
22201;SDS011;11266;51.522;6.302;2024-01-06T00:44:30;21.25;;;10.02;;
22201;SDS011;11266;51.522;6.302;2024-01-06T00:45:15;21.10;;;10.35;;
22201;SDS011;11266;51.522;6.302;2024-01-06T00:46:01;12.57;;;9.65;;
22201;SDS011;11266;51.522;6.302;2024-01-06T00:46:46;16.02;;;9.23;;
22201;SDS011;11266;51.522;6.302;2024-01-06T00:47:32;18.42;;;11.13;;
22201;SDS011;11266;51.522;6.302;2024-01-06T00:48:18;17.33;;;9.88;;
22201;SDS011;11266;51.522;6.302;2024-01-06T00:49:03;12.80;;;9.60;;
22201;SDS011;11266;51.522;6.302;2024-01-06T00:49:49;17.88;;;10.65;;
22201;SDS011;11266;51.522;6.302;2024-01-06T00:50:34;17.40;;;10.80;;
22201;SDS011;11266;51.522;6.302;2024-01-06T00:51:20;18.13;;;9.85;;
22201;SDS011;11266;51.522;6.302;2024-01-06T00:52:07;14.50;;;10.13;;
22201;SDS011;11266;51.522;6.302;2024-01-06T00:52:52;19.45;;;9.95;;
22201;SDS011;11266;51.522;6.302;2024-01-06T00:53:38;15.57;;;10.90;;
22201;SDS011;11266;51.522;6.302;2024-01-06T00:54:23;14.93;;;10.43;;
22201;SDS011;11266;51.522;6.302;2024-01-06T00:55:09;19.83;;;11.73;;
22201;SDS011;11266;51.522;6.302;2024-01-06T00:55:54;18.38;;;10.30;;
22201;SDS011;11266;51.522;6.302;2024-01-06T00:56:40;13.15;;;10.15;;
22201;SDS011;11266;51.522;6.302;2024-01-06T00:57:27;14.90;;;10.85;;
22201;SDS011;11266;51.522;6.302;2024-01-06T00:58:12;15.80;;;11.68;;
22201;SDS011;11266;51.522;6.302;2024-01-06T00:58:58;16.08;;;11.07;;
22201;SDS011;11266;51.522;6.302;2024-01-06T00:59:44;14.25;;;10.93;;
22201;SDS011;11266;51.522;6.302;2024-01-06T01:00:29;15.85;;;10.77;;
22201;SDS011;11266;51.522;6.302;2024-01-06T01:01:15;14.27;;;10.65;;
22201;SDS011;11266;51.522;6.302;2024-01-06T01:02:00;17.52;;;10.85;;
22201;SDS011;11266;51.522;6.302;2024-01-06T01:02:46;17.25;;;11.98;;
22201;SDS011;11266;51.522;6.302;2024-01-06T01:03:31;14.52;;;11.82;;
22201;SDS011;11266;51.522;6.302;2024-01-06T01:04:17;19.23;;;11.48;;
22201;SDS011;11266;51.522;6.302;2024-01-06T01:05:02;14.75;;;11.20;;
22201;SDS011;11266;51.522;6.302;2024-01-06T01:05:48;23.58;;;12.15;;
22201;SDS011;11266;51.522;6.302;2024-01-06T01:06:34;18.48;;;12.77;;
22201;SDS011;11266;51.522;6.302;2024-01-06T01:07:21;20.42;;;11.82;;
22201;SDS011;11266;51.522;6.302;2024-01-06T01:08:07;16.67;;;12.25;;
22201;SDS011;11266;51.522;6.302;2024-01-06T01:08:53;16.02;;;11.68;;
22201;SDS011;11266;51.522;6.302;2024-01-06T01:09:38;16.60;;;11.77;;
22201;SDS011;11266;51.522;6.302;2024-01-06T01:10:24;18.42;;;12.52;;
22201;SDS011;11266;51.522;6.302;2024-01-06T01:11:09;13.45;;;10.65;;
22201;SDS011;11266;51.522;6.302;2024-01-06T01:11:55;13.60;;;10.85;;
22201;SDS011;11266;51.522;6.302;2024-01-06T01:12:40;18.30;;;12.40;;
22201;SDS011;11266;51.522;6.302;2024-01-06T01:13:26;17.75;;;11.77;;
22201;SDS011;11266;51.522;6.302;2024-01-06T01:14:11;15.63;;;11.25;;
22201;SDS011;11266;51.522;6.302;2024-01-06T01:14:57;13.25;;;10.13;;
22201;SDS011;11266;51.522;6.302;2024-01-06T01:15:42;15.27;;;11.20;;
22201;SDS011;11266;51.522;6.302;2024-01-06T01:16:28;16.92;;;12.20;;
22201;SDS011;11266;51.522;6.302;2024-01-06T01:17:14;15.60;;;12.05;;
22201;SDS011;11266;51.522;6.302;2024-01-06T01:18:00;18.48;;;11.60;;
22201;SDS011;11266;51.522;6.302;2024-01-06T01:18:45;23.92;;;13.75;;
22201;SDS011;11266;51.522;6.302;2024-01-06T01:19:31;19.42;;;12.13;;
22201;SDS011;11266;51.522;6.302;2024-01-06T01:20:16;17.83;;;12.82;;
22201;SDS011;11266;51.522;6.302;2024-01-06T01:21:02;14.23;;;11.73;;
22201;SDS011;11266;51.522;6.302;2024-01-06T01:21:48;22.85;;;12.82;;
22201;SDS011;11266;51.522;6.302;2024-01-06T01:22:33;19.63;;;13.60;;
22201;SDS011;11266;51.522;6.302;2024-01-06T01:23:19;19.40;;;12.77;;
22201;SDS011;11266;51.522;6.302;2024-01-06T01:24:04;24.15;;;13.68;;
22201;SDS011;11266;51.522;6.302;2024-01-06T01:24:50;18.15;;;12.80;;
22201;SDS011;11266;51.522;6.302;2024-01-06T01:25:36;16.25;;;12.00;;
22201;SDS011;11266;51.522;6.302;2024-01-06T01:26:21;15.05;;;11.48;;
22201;SDS011;11266;51.522;6.302;2024-01-06T01:27:07;16.83;;;11.10;;
22201;SDS011;11266;51.522;6.302;2024-01-06T01:27:52;19.67;;;12.23;;
22201;SDS011;11266;51.522;6.302;2024-01-06T01:28:38;18.42;;;12.55;;
22201;SDS011;11266;51.522;6.302;2024-01-06T01:29:23;18.67;;;12.45;;
22201;SDS011;11266;51.522;6.302;2024-01-06T01:30:09;19.42;;;13.00;;
22201;SDS011;11266;51.522;6.302;2024-01-06T01:30:55;22.70;;;12.95;;
22201;SDS011;11266;51.522;6.302;2024-01-06T01:31:40;19.98;;;13.27;;
22201;SDS011;11266;51.522;6.302;2024-01-06T01:32:26;16.10;;;12.57;;
22201;SDS011;11266;51.522;6.302;2024-01-06T01:33:11;19.50;;;13.57;;
22201;SDS011;11266;51.522;6.302;2024-01-06T01:33:57;18.27;;;13.60;;
22201;SDS011;11266;51.522;6.302;2024-01-06T01:34:42;18.17;;;13.43;;
22201;SDS011;11266;51.522;6.302;2024-01-06T01:35:28;17.27;;;12.38;;
22201;SDS011;11266;51.522;6.302;2024-01-06T01:36:13;21.10;;;12.88;;
22201;SDS011;11266;51.522;6.302;2024-01-06T01:36:59;18.55;;;13.43;;
22201;SDS011;11266;51.522;6.302;2024-01-06T01:37:45;20.90;;;12.75;;
22201;SDS011;11266;51.522;6.302;2024-01-06T01:38:31;16.17;;;12.18;;
22201;SDS011;11266;51.522;6.302;2024-01-06T01:39:17;14.90;;;11.73;;
22201;SDS011;11266;51.522;6.302;2024-01-06T01:40:02;18.95;;;12.63;;
22201;SDS011;11266;51.522;6.302;2024-01-06T01:40:48;17.40;;;13.23;;
22201;SDS011;11266;51.522;6.302;2024-01-06T01:41:34;18.25;;;12.73;;
22201;SDS011;11266;51.522;6.302;2024-01-06T01:42:19;19.52;;;12.00;;
22201;SDS011;11266;51.522;6.302;2024-01-06T01:43:05;14.48;;;11.35;;
22201;SDS011;11266;51.522;6.302;2024-01-06T01:43:51;14.80;;;11.68;;
22201;SDS011;11266;51.522;6.302;2024-01-06T01:44:43;15.10;;;11.57;;
22201;SDS011;11266;51.522;6.302;2024-01-06T01:45:29;16.30;;;11.48;;
22201;SDS011;11266;51.522;6.302;2024-01-06T01:46:15;19.08;;;12.68;;
22201;SDS011;11266;51.522;6.302;2024-01-06T01:47:00;25.52;;;12.63;;
22201;SDS011;11266;51.522;6.302;2024-01-06T01:47:48;17.15;;;12.63;;
22201;SDS011;11266;51.522;6.302;2024-01-06T01:48:33;18.05;;;11.98;;
22201;SDS011;11266;51.522;6.302;2024-01-06T01:49:19;17.55;;;12.85;;
22201;SDS011;11266;51.522;6.302;2024-01-06T01:50:05;20.98;;;13.82;;
22201;SDS011;11266;51.522;6.302;2024-01-06T01:50:52;20.15;;;13.25;;
22201;SDS011;11266;51.522;6.302;2024-01-06T01:51:38;17.17;;;12.50;;
22201;SDS011;11266;51.522;6.302;2024-01-06T01:52:24;18.80;;;12.80;;
22201;SDS011;11266;51.522;6.302;2024-01-06T01:53:10;18.95;;;12.95;;
22201;SDS011;11266;51.522;6.302;2024-01-06T01:53:57;19.33;;;12.70;;
22201;SDS011;11266;51.522;6.302;2024-01-06T01:54:43;18.52;;;12.95;;
22201;SDS011;11266;51.522;6.302;2024-01-06T01:55:30;16.42;;;12.48;;
22201;SDS011;11266;51.522;6.302;2024-01-06T01:56:16;20.48;;;13.07;;
22201;SDS011;11266;51.522;6.302;2024-01-06T01:57:02;16.55;;;12.65;;
22201;SDS011;11266;51.522;6.302;2024-01-06T01:57:48;18.40;;;13.18;;
22201;SDS011;11266;51.522;6.302;2024-01-06T01:58:33;16.75;;;12.45;;
22201;SDS011;11266;51.522;6.302;2024-01-06T01:59:19;18.13;;;12.75;;
22201;SDS011;11266;51.522;6.302;2024-01-06T02:00:05;19.60;;;13.40;;
22201;SDS011;11266;51.522;6.302;2024-01-06T02:00:52;17.35;;;12.80;;
22201;SDS011;11266;51.522;6.302;2024-01-06T02:01:41;17.15;;;13.00;;
22201;SDS011;11266;51.522;6.302;2024-01-06T02:02:27;16.35;;;12.52;;
22201;SDS011;11266;51.522;6.302;2024-01-06T02:03:13;15.82;;;11.68;;
22201;SDS011;11266;51.522;6.302;2024-01-06T02:03:59;17.25;;;12.68;;
22201;SDS011;11266;51.522;6.302;2024-01-06T02:04:45;19.52;;;13.88;;
22201;SDS011;11266;51.522;6.302;2024-01-06T02:05:31;16.02;;;12.57;;
22201;SDS011;11266;51.522;6.302;2024-01-06T02:06:16;20.98;;;12.88;;
22201;SDS011;11266;51.522;6.302;2024-01-06T02:07:02;16.85;;;12.88;;
22201;SDS011;11266;51.522;6.302;2024-01-06T02:07:48;16.92;;;13.05;;
22201;SDS011;11266;51.522;6.302;2024-01-06T02:08:37;14.45;;;11.57;;
22201;SDS011;11266;51.522;6.302;2024-01-06T02:09:22;15.27;;;11.00;;
22201;SDS011;11266;51.522;6.302;2024-01-06T02:10:14;15.73;;;11.77;;
22201;SDS011;11266;51.522;6.302;2024-01-06T02:10:59;15.80;;;11.50;;
22201;SDS011;11266;51.522;6.302;2024-01-06T02:11:45;17.45;;;12.10;;
22201;SDS011;11266;51.522;6.302;2024-01-06T02:12:30;17.27;;;11.40;;
22201;SDS011;11266;51.522;6.302;2024-01-06T02:13:16;14.43;;;10.40;;
22201;SDS011;11266;51.522;6.302;2024-01-06T02:14:02;15.82;;;11.27;;
22201;SDS011;11266;51.522;6.302;2024-01-06T02:14:47;16.95;;;10.57;;
22201;SDS011;11266;51.522;6.302;2024-01-06T02:15:33;14.27;;;10.63;;
22201;SDS011;11266;51.522;6.302;2024-01-06T02:16:19;16.30;;;11.85;;
22201;SDS011;11266;51.522;6.302;2024-01-06T02:17:05;15.55;;;10.02;;
22201;SDS011;11266;51.522;6.302;2024-01-06T02:17:50;16.17;;;11.65;;
22201;SDS011;11266;51.522;6.302;2024-01-06T02:18:36;13.40;;;10.10;;
22201;SDS011;11266;51.522;6.302;2024-01-06T02:19:21;14.23;;;10.10;;
22201;SDS011;11266;51.522;6.302;2024-01-06T02:20:07;14.30;;;9.85;;
22201;SDS011;11266;51.522;6.302;2024-01-06T02:20:53;12.63;;;9.68;;
22201;SDS011;11266;51.522;6.302;2024-01-06T02:21:43;12.45;;;9.50;;
22201;SDS011;11266;51.522;6.302;2024-01-06T02:22:34;12.90;;;9.55;;
22201;SDS011;11266;51.522;6.302;2024-01-06T02:23:21;12.82;;;8.95;;
22201;SDS011;11266;51.522;6.302;2024-01-06T02:24:06;12.90;;;8.52;;
22201;SDS011;11266;51.522;6.302;2024-01-06T02:24:52;13.30;;;9.48;;
22201;SDS011;11266;51.522;6.302;2024-01-06T02:25:38;12.98;;;9.30;;
22201;SDS011;11266;51.522;6.302;2024-01-06T02:26:24;13.57;;;9.50;;
22201;SDS011;11266;51.522;6.302;2024-01-06T02:27:10;15.00;;;9.10;;
22201;SDS011;11266;51.522;6.302;2024-01-06T02:27:55;15.45;;;9.13;;
22201;SDS011;11266;51.522;6.302;2024-01-06T02:28:41;12.90;;;9.65;;
22201;SDS011;11266;51.522;6.302;2024-01-06T02:29:29;11.70;;;8.90;;
22201;SDS011;11266;51.522;6.302;2024-01-06T02:30:15;12.30;;;8.90;;
22201;SDS011;11266;51.522;6.302;2024-01-06T02:31:01;12.40;;;8.52;;
22201;SDS011;11266;51.522;6.302;2024-01-06T02:31:46;11.75;;;8.07;;
22201;SDS011;11266;51.522;6.302;2024-01-06T02:32:32;11.93;;;8.15;;
22201;SDS011;11266;51.522;6.302;2024-01-06T02:33:17;11.40;;;7.97;;
22201;SDS011;11266;51.522;6.302;2024-01-06T02:34:04;15.05;;;8.65;;
22201;SDS011;11266;51.522;6.302;2024-01-06T02:34:49;12.32;;;8.25;;
22201;SDS011;11266;51.522;6.302;2024-01-06T02:35:35;10.25;;;8.07;;
22201;SDS011;11266;51.522;6.302;2024-01-06T02:36:21;13.13;;;8.05;;
22201;SDS011;11266;51.522;6.302;2024-01-06T02:37:06;12.20;;;8.23;;
22201;SDS011;11266;51.522;6.302;2024-01-06T02:37:52;13.57;;;8.70;;
22201;SDS011;11266;51.522;6.302;2024-01-06T02:38:37;11.07;;;8.13;;
22201;SDS011;11266;51.522;6.302;2024-01-06T02:39:23;10.25;;;7.85;;
22201;SDS011;11266;51.522;6.302;2024-01-06T02:40:09;11.80;;;7.50;;
22201;SDS011;11266;51.522;6.302;2024-01-06T02:40:55;10.98;;;7.63;;
22201;SDS011;11266;51.522;6.302;2024-01-06T02:41:40;10.23;;;7.25;;
22201;SDS011;11266;51.522;6.302;2024-01-06T02:42:26;10.93;;;8.07;;
22201;SDS011;11266;51.522;6.302;2024-01-06T02:43:12;10.70;;;7.78;;
22201;SDS011;11266;51.522;6.302;2024-01-06T02:43:57;9.73;;;6.95;;
22201;SDS011;11266;51.522;6.302;2024-01-06T02:44:43;11.90;;;7.32;;
22201;SDS011;11266;51.522;6.302;2024-01-06T02:45:28;11.25;;;7.50;;
22201;SDS011;11266;51.522;6.302;2024-01-06T02:46:14;10.65;;;7.65;;
22201;SDS011;11266;51.522;6.302;2024-01-06T02:46:59;12.23;;;7.55;;
22201;SDS011;11266;51.522;6.302;2024-01-06T02:47:45;11.25;;;7.57;;
22201;SDS011;11266;51.522;6.302;2024-01-06T02:48:30;11.52;;;7.95;;
22201;SDS011;11266;51.522;6.302;2024-01-06T02:49:16;11.32;;;7.30;;
22201;SDS011;11266;51.522;6.302;2024-01-06T02:50:01;10.40;;;7.97;;
22201;SDS011;11266;51.522;6.302;2024-01-06T02:50:47;10.98;;;7.50;;
22201;SDS011;11266;51.522;6.302;2024-01-06T02:51:33;12.80;;;6.95;;
22201;SDS011;11266;51.522;6.302;2024-01-06T02:52:18;9.93;;;7.05;;
22201;SDS011;11266;51.522;6.302;2024-01-06T02:53:04;10.00;;;7.10;;
22201;SDS011;11266;51.522;6.302;2024-01-06T02:53:49;10.68;;;7.40;;
22201;SDS011;11266;51.522;6.302;2024-01-06T02:54:35;16.25;;;8.05;;
22201;SDS011;11266;51.522;6.302;2024-01-06T02:55:20;11.73;;;6.95;;
22201;SDS011;11266;51.522;6.302;2024-01-06T02:56:09;9.43;;;6.82;;
22201;SDS011;11266;51.522;6.302;2024-01-06T02:56:56;9.73;;;7.13;;
22201;SDS011;11266;51.522;6.302;2024-01-06T02:57:41;11.77;;;7.38;;
22201;SDS011;11266;51.522;6.302;2024-01-06T02:58:27;10.27;;;7.20;;
22201;SDS011;11266;51.522;6.302;2024-01-06T02:59:12;10.65;;;7.32;;
22201;SDS011;11266;51.522;6.302;2024-01-06T02:59:58;11.02;;;6.85;;
22201;SDS011;11266;51.522;6.302;2024-01-06T03:00:43;9.98;;;7.50;;
22201;SDS011;11266;51.522;6.302;2024-01-06T03:01:29;9.73;;;7.07;;
22201;SDS011;11266;51.522;6.302;2024-01-06T03:02:16;9.82;;;7.32;;
22201;SDS011;11266;51.522;6.302;2024-01-06T03:03:02;10.32;;;7.75;;
22201;SDS011;11266;51.522;6.302;2024-01-06T03:03:48;8.95;;;6.57;;
22201;SDS011;11266;51.522;6.302;2024-01-06T03:04:33;19.13;;;7.28;;
22201;SDS011;11266;51.522;6.302;2024-01-06T03:05:19;10.70;;;7.55;;
22201;SDS011;11266;51.522;6.302;2024-01-06T03:06:04;10.45;;;7.22;;
22201;SDS011;11266;51.522;6.302;2024-01-06T03:06:50;10.13;;;7.22;;
22201;SDS011;11266;51.522;6.302;2024-01-06T03:07:38;12.30;;;7.82;;
22201;SDS011;11266;51.522;6.302;2024-01-06T03:08:23;9.70;;;7.20;;
22201;SDS011;11266;51.522;6.302;2024-01-06T03:09:09;11.93;;;8.10;;
22201;SDS011;11266;51.522;6.302;2024-01-06T03:09:55;9.32;;;7.13;;
22201;SDS011;11266;51.522;6.302;2024-01-06T03:10:40;9.95;;;6.95;;
22201;SDS011;11266;51.522;6.302;2024-01-06T03:11:26;10.00;;;7.07;;
22201;SDS011;11266;51.522;6.302;2024-01-06T03:12:11;10.40;;;7.60;;
22201;SDS011;11266;51.522;6.302;2024-01-06T03:12:57;10.00;;;7.53;;
22201;SDS011;11266;51.522;6.302;2024-01-06T03:13:43;10.57;;;7.82;;
22201;SDS011;11266;51.522;6.302;2024-01-06T03:14:28;12.55;;;7.22;;
22201;SDS011;11266;51.522;6.302;2024-01-06T03:15:14;12.95;;;7.35;;
22201;SDS011;11266;51.522;6.302;2024-01-06T03:16:03;10.45;;;8.10;;
22201;SDS011;11266;51.522;6.302;2024-01-06T03:16:50;10.18;;;7.82;;
22201;SDS011;11266;51.522;6.302;2024-01-06T03:17:35;12.68;;;8.60;;
22201;SDS011;11266;51.522;6.302;2024-01-06T03:18:21;9.35;;;6.95;;
22201;SDS011;11266;51.522;6.302;2024-01-06T03:19:06;10.50;;;7.72;;
22201;SDS011;11266;51.522;6.302;2024-01-06T03:19:52;15.75;;;9.32;;
22201;SDS011;11266;51.522;6.302;2024-01-06T03:20:38;13.75;;;7.65;;
22201;SDS011;11266;51.522;6.302;2024-01-06T03:21:23;9.95;;;7.47;;
22201;SDS011;11266;51.522;6.302;2024-01-06T03:22:09;11.27;;;7.90;;
22201;SDS011;11266;51.522;6.302;2024-01-06T03:22:55;18.27;;;8.00;;
22201;SDS011;11266;51.522;6.302;2024-01-06T03:23:40;14.35;;;8.73;;
22201;SDS011;11266;51.522;6.302;2024-01-06T03:24:26;11.45;;;8.50;;
22201;SDS011;11266;51.522;6.302;2024-01-06T03:25:12;11.18;;;8.70;;
22201;SDS011;11266;51.522;6.302;2024-01-06T03:25:57;11.88;;;7.85;;
22201;SDS011;11266;51.522;6.302;2024-01-06T03:26:43;10.77;;;8.30;;
22201;SDS011;11266;51.522;6.302;2024-01-06T03:27:28;12.13;;;8.57;;
22201;SDS011;11266;51.522;6.302;2024-01-06T03:28:14;11.13;;;8.05;;
22201;SDS011;11266;51.522;6.302;2024-01-06T03:28:59;11.90;;;8.75;;
22201;SDS011;11266;51.522;6.302;2024-01-06T03:29:47;12.05;;;8.65;;
22201;SDS011;11266;51.522;6.302;2024-01-06T03:30:33;12.05;;;8.00;;
22201;SDS011;11266;51.522;6.302;2024-01-06T03:31:18;11.57;;;8.70;;
22201;SDS011;11266;51.522;6.302;2024-01-06T03:32:05;11.85;;;8.82;;
22201;SDS011;11266;51.522;6.302;2024-01-06T03:32:51;10.23;;;8.27;;
22201;SDS011;11266;51.522;6.302;2024-01-06T03:33:37;13.90;;;7.63;;
22201;SDS011;11266;51.522;6.302;2024-01-06T03:34:22;11.88;;;7.95;;
22201;SDS011;11266;51.522;6.302;2024-01-06T03:35:08;12.80;;;8.90;;
22201;SDS011;11266;51.522;6.302;2024-01-06T03:35:53;14.02;;;8.63;;
22201;SDS011;11266;51.522;6.302;2024-01-06T03:36:39;13.63;;;8.77;;
22201;SDS011;11266;51.522;6.302;2024-01-06T03:37:25;12.25;;;8.18;;
22201;SDS011;11266;51.522;6.302;2024-01-06T03:38:11;11.50;;;8.68;;
22201;SDS011;11266;51.522;6.302;2024-01-06T03:38:56;12.40;;;8.35;;
22201;SDS011;11266;51.522;6.302;2024-01-06T03:39:42;10.32;;;7.78;;
22201;SDS011;11266;51.522;6.302;2024-01-06T03:40:27;11.48;;;7.43;;
22201;SDS011;11266;51.522;6.302;2024-01-06T03:41:13;10.40;;;7.95;;
22201;SDS011;11266;51.522;6.302;2024-01-06T03:41:59;11.20;;;8.20;;
22201;SDS011;11266;51.522;6.302;2024-01-06T03:42:45;11.20;;;8.48;;
22201;SDS011;11266;51.522;6.302;2024-01-06T03:43:31;12.20;;;8.43;;
22201;SDS011;11266;51.522;6.302;2024-01-06T03:44:16;15.35;;;8.52;;
22201;SDS011;11266;51.522;6.302;2024-01-06T03:45:02;10.98;;;8.45;;
22201;SDS011;11266;51.522;6.302;2024-01-06T03:45:48;11.68;;;8.07;;
22201;SDS011;11266;51.522;6.302;2024-01-06T03:46:34;12.23;;;7.18;;
22201;SDS011;11266;51.522;6.302;2024-01-06T03:47:20;9.73;;;7.25;;
22201;SDS011;11266;51.522;6.302;2024-01-06T03:48:06;9.85;;;7.25;;
22201;SDS011;11266;51.522;6.302;2024-01-06T03:48:52;12.88;;;7.57;;
22201;SDS011;11266;51.522;6.302;2024-01-06T03:49:37;10.93;;;7.57;;
22201;SDS011;11266;51.522;6.302;2024-01-06T03:50:23;10.38;;;7.65;;
22201;SDS011;11266;51.522;6.302;2024-01-06T03:51:09;9.80;;;7.28;;
22201;SDS011;11266;51.522;6.302;2024-01-06T03:51:55;10.45;;;7.20;;
22201;SDS011;11266;51.522;6.302;2024-01-06T03:52:40;8.32;;;6.20;;
22201;SDS011;11266;51.522;6.302;2024-01-06T03:53:26;12.23;;;8.48;;
22201;SDS011;11266;51.522;6.302;2024-01-06T03:54:12;12.77;;;8.20;;
22201;SDS011;11266;51.522;6.302;2024-01-06T03:54:57;11.20;;;8.00;;
22201;SDS011;11266;51.522;6.302;2024-01-06T03:55:43;13.82;;;8.07;;
22201;SDS011;11266;51.522;6.302;2024-01-06T03:56:28;13.70;;;8.02;;
22201;SDS011;11266;51.522;6.302;2024-01-06T03:57:14;9.90;;;7.47;;
22201;SDS011;11266;51.522;6.302;2024-01-06T03:57:59;9.52;;;7.03;;
22201;SDS011;11266;51.522;6.302;2024-01-06T03:58:45;11.55;;;7.97;;
22201;SDS011;11266;51.522;6.302;2024-01-06T03:59:31;10.48;;;8.32;;
22201;SDS011;11266;51.522;6.302;2024-01-06T04:00:16;10.88;;;8.30;;
22201;SDS011;11266;51.522;6.302;2024-01-06T04:01:02;12.27;;;8.15;;
22201;SDS011;11266;51.522;6.302;2024-01-06T04:01:48;12.45;;;8.02;;
22201;SDS011;11266;51.522;6.302;2024-01-06T04:02:33;10.52;;;7.38;;
22201;SDS011;11266;51.522;6.302;2024-01-06T04:03:19;13.32;;;8.10;;
22201;SDS011;11266;51.522;6.302;2024-01-06T04:04:05;14.50;;;7.95;;
22201;SDS011;11266;51.522;6.302;2024-01-06T04:04:51;12.07;;;8.05;;
22201;SDS011;11266;51.522;6.302;2024-01-06T04:05:36;9.88;;;7.55;;
22201;SDS011;11266;51.522;6.302;2024-01-06T04:06:22;13.05;;;8.10;;
22201;SDS011;11266;51.522;6.302;2024-01-06T04:07:07;18.83;;;9.13;;
22201;SDS011;11266;51.522;6.302;2024-01-06T04:07:53;12.00;;;8.93;;
22201;SDS011;11266;51.522;6.302;2024-01-06T04:08:39;12.07;;;8.85;;
22201;SDS011;11266;51.522;6.302;2024-01-06T04:09:26;12.60;;;9.23;;
22201;SDS011;11266;51.522;6.302;2024-01-06T04:10:11;13.27;;;8.38;;
22201;SDS011;11266;51.522;6.302;2024-01-06T04:10:57;14.13;;;8.07;;
22201;SDS011;11266;51.522;6.302;2024-01-06T04:11:42;12.40;;;7.90;;
22201;SDS011;11266;51.522;6.302;2024-01-06T04:12:28;11.77;;;8.02;;
22201;SDS011;11266;51.522;6.302;2024-01-06T04:13:14;12.20;;;8.05;;
22201;SDS011;11266;51.522;6.302;2024-01-06T04:14:00;11.25;;;8.27;;
22201;SDS011;11266;51.522;6.302;2024-01-06T04:14:46;12.90;;;8.43;;
22201;SDS011;11266;51.522;6.302;2024-01-06T04:15:31;11.68;;;8.77;;
22201;SDS011;11266;51.522;6.302;2024-01-06T04:16:17;10.70;;;8.23;;
22201;SDS011;11266;51.522;6.302;2024-01-06T04:17:02;12.32;;;7.60;;
22201;SDS011;11266;51.522;6.302;2024-01-06T04:17:48;10.57;;;7.88;;
22201;SDS011;11266;51.522;6.302;2024-01-06T04:18:34;10.70;;;7.47;;
22201;SDS011;11266;51.522;6.302;2024-01-06T04:19:20;11.32;;;8.50;;
22201;SDS011;11266;51.522;6.302;2024-01-06T04:20:05;9.98;;;7.57;;
22201;SDS011;11266;51.522;6.302;2024-01-06T04:20:51;9.68;;;6.82;;
22201;SDS011;11266;51.522;6.302;2024-01-06T04:21:37;10.82;;;7.28;;
22201;SDS011;11266;51.522;6.302;2024-01-06T04:22:22;11.07;;;8.20;;
22201;SDS011;11266;51.522;6.302;2024-01-06T04:23:09;9.93;;;6.95;;
22201;SDS011;11266;51.522;6.302;2024-01-06T04:23:54;11.63;;;7.68;;
22201;SDS011;11266;51.522;6.302;2024-01-06T04:24:41;11.45;;;8.02;;
22201;SDS011;11266;51.522;6.302;2024-01-06T04:25:26;11.70;;;7.93;;
22201;SDS011;11266;51.522;6.302;2024-01-06T04:26:12;11.18;;;8.10;;
22201;SDS011;11266;51.522;6.302;2024-01-06T04:26:58;11.20;;;7.95;;
22201;SDS011;11266;51.522;6.302;2024-01-06T04:27:44;11.43;;;7.53;;
22201;SDS011;11266;51.522;6.302;2024-01-06T04:28:31;9.30;;;6.82;;
22201;SDS011;11266;51.522;6.302;2024-01-06T04:29:17;14.00;;;7.40;;
22201;SDS011;11266;51.522;6.302;2024-01-06T04:30:02;12.10;;;8.20;;
22201;SDS011;11266;51.522;6.302;2024-01-06T04:30:49;13.40;;;7.80;;